sensor_id;sensor_type;location;lat;lon;timestamp;P1;durP1;ratioP1;P2;durP2;ratioP2
77430;SDS011;66498;48.564;19.272;2022-12-29T18:06:38;66.82;;;40.92;;
77430;SDS011;66498;48.564;19.272;2022-12-29T18:09:05;56.08;;;34.97;;
77430;SDS011;66498;48.564;19.272;2022-12-29T18:11:32;84.13;;;43.97;;
77430;SDS011;66498;48.564;19.272;2022-12-29T18:14:00;68.22;;;38.35;;
77430;SDS011;66498;48.564;19.272;2022-12-29T18:16:26;60.42;;;34.00;;
77430;SDS011;66498;48.564;19.272;2022-12-29T18:18:51;53.78;;;30.60;;
77430;SDS011;66498;48.564;19.272;2022-12-29T18:21:18;50.28;;;28.67;;
77430;SDS011;66498;48.564;19.272;2022-12-29T18:23:46;41.55;;;26.27;;
77430;SDS011;66498;48.564;19.272;2022-12-29T18:26:15;49.50;;;30.00;;
77430;SDS011;66498;48.564;19.272;2022-12-29T18:28:45;59.05;;;34.85;;
77430;SDS011;66498;48.564;19.272;2022-12-29T18:33:44;71.70;;;44.05;;
77430;SDS011;66498;48.564;19.272;2022-12-29T18:36:11;65.18;;;40.67;;
77430;SDS011;66498;48.564;19.272;2022-12-29T18:38:37;70.68;;;40.80;;
77430;SDS011;66498;48.564;19.272;2022-12-29T18:41:04;75.57;;;44.30;;
77430;SDS011;66498;48.564;19.272;2022-12-29T18:43:29;76.80;;;46.72;;
77430;SDS011;66498;48.564;19.272;2022-12-29T18:45:55;99.68;;;53.97;;
77430;SDS011;66498;48.564;19.272;2022-12-29T18:48:21;98.22;;;53.97;;
77430;SDS011;66498;48.564;19.272;2022-12-29T18:50:47;102.25;;;54.97;;
77430;SDS011;66498;48.564;19.272;2022-12-29T18:53:18;106.18;;;57.72;;
77430;SDS011;66498;48.564;19.272;2022-12-29T18:55:49;92.95;;;53.67;;
77430;SDS011;66498;48.564;19.272;2022-12-29T18:58:16;104.18;;;58.00;;
77430;SDS011;66498;48.564;19.272;2022-12-29T19:00:41;141.52;;;70.97;;
77430;SDS011;66498;48.564;19.272;2022-12-29T19:03:09;147.48;;;74.70;;
77430;SDS011;66498;48.564;19.272;2022-12-29T19:05:37;152.20;;;76.97;;
77430;SDS011;66498;48.564;19.272;2022-12-29T19:08:05;117.22;;;62.45;;
77430;SDS011;66498;48.564;19.272;2022-12-29T19:10:31;102.55;;;55.90;;
77430;SDS011;66498;48.564;19.272;2022-12-29T19:12:57;72.70;;;42.08;;
77430;SDS011;66498;48.564;19.272;2022-12-29T19:15:27;62.60;;;37.92;;
77430;SDS011;66498;48.564;19.272;2022-12-29T19:17:53;56.17;;;35.20;;
77430;SDS011;66498;48.564;19.272;2022-12-29T19:20:31;70.03;;;42.50;;
77430;SDS011;66498;48.564;19.272;2022-12-29T19:22:57;68.80;;;39.60;;
77430;SDS011;66498;48.564;19.272;2022-12-29T19:25:24;67.20;;;40.55;;
77430;SDS011;66498;48.564;19.272;2022-12-29T19:27:51;78.50;;;43.90;;
77430;SDS011;66498;48.564;19.272;2022-12-29T19:30:17;79.10;;;46.65;;
77430;SDS011;66498;48.564;19.272;2022-12-29T19:32:45;61.35;;;36.10;;
77430;SDS011;66498;48.564;19.272;2022-12-29T19:35:12;56.83;;;34.95;;
77430;SDS011;66498;48.564;19.272;2022-12-29T19:37:38;53.63;;;32.80;;
77430;SDS011;66498;48.564;19.272;2022-12-29T19:40:09;55.45;;;34.05;;
77430;SDS011;66498;48.564;19.272;2022-12-29T19:42:38;53.38;;;32.42;;
77430;SDS011;66498;48.564;19.272;2022-12-29T19:45:04;92.55;;;50.30;;
77430;SDS011;66498;48.564;19.272;2022-12-29T19:47:31;101.03;;;54.92;;
77430;SDS011;66498;48.564;19.272;2022-12-29T19:49:57;88.72;;;49.40;;
77430;SDS011;66498;48.564;19.272;2022-12-29T19:52:24;100.63;;;55.92;;
77430;SDS011;66498;48.564;19.272;2022-12-29T19:54:50;109.05;;;57.10;;
77430;SDS011;66498;48.564;19.272;2022-12-29T19:57:17;140.48;;;77.53;;
77430;SDS011;66498;48.564;19.272;2022-12-29T19:59:43;175.02;;;91.43;;
77430;SDS011;66498;48.564;19.272;2022-12-29T20:02:30;182.82;;;96.75;;
77430;SDS011;66498;48.564;19.272;2022-12-29T20:04:59;152.25;;;80.57;;
77430;SDS011;66498;48.564;19.272;2022-12-29T20:07:25;134.95;;;71.72;;
77430;SDS011;66498;48.564;19.272;2022-12-29T20:09:51;138.50;;;74.75;;
77430;SDS011;66498;48.564;19.272;2022-12-29T20:12:17;143.10;;;78.03;;
77430;SDS011;66498;48.564;19.272;2022-12-29T20:14:43;146.43;;;82.05;;
77430;SDS011;66498;48.564;19.272;2022-12-29T20:17:11;152.93;;;84.43;;
77430;SDS011;66498;48.564;19.272;2022-12-29T20:19:38;147.05;;;82.97;;
77430;SDS011;66498;48.564;19.272;2022-12-29T20:22:04;152.60;;;84.00;;
77430;SDS011;66498;48.564;19.272;2022-12-29T20:24:32;180.98;;;100.10;;
77430;SDS011;66498;48.564;19.272;2022-12-29T20:26:59;159.25;;;84.95;;
77430;SDS011;66498;48.564;19.272;2022-12-29T20:29:27;157.95;;;84.10;;
77430;SDS011;66498;48.564;19.272;2022-12-29T20:32:03;157.18;;;87.45;;
77430;SDS011;66498;48.564;19.272;2022-12-29T20:34:29;155.35;;;85.15;;
77430;SDS011;66498;48.564;19.272;2022-12-29T20:36:55;111.65;;;62.90;;
77430;SDS011;66498;48.564;19.272;2022-12-29T20:39:21;89.22;;;49.53;;
77430;SDS011;66498;48.564;19.272;2022-12-29T20:41:47;75.07;;;44.22;;
77430;SDS011;66498;48.564;19.272;2022-12-29T20:44:12;54.75;;;33.08;;
77430;SDS011;66498;48.564;19.272;2022-12-29T20:46:41;59.80;;;34.00;;
77430;SDS011;66498;48.564;19.272;2022-12-29T20:49:07;58.50;;;34.42;;
77430;SDS011;66498;48.564;19.272;2022-12-29T20:51:32;55.58;;;35.85;;
77430;SDS011;66498;48.564;19.272;2022-12-29T20:54:00;64.50;;;37.80;;
77430;SDS011;66498;48.564;19.272;2022-12-29T20:56:26;72.60;;;40.85;;
77430;SDS011;66498;48.564;19.272;2022-12-29T20:58:53;78.22;;;42.80;;
77430;SDS011;66498;48.564;19.272;2022-12-29T21:01:20;66.18;;;39.03;;
77430;SDS011;66498;48.564;19.272;2022-12-29T21:03:47;67.00;;;38.65;;
77430;SDS011;66498;48.564;19.272;2022-12-29T21:06:13;69.25;;;38.05;;
77430;SDS011;66498;48.564;19.272;2022-12-29T21:08:41;69.05;;;39.90;;
77430;SDS011;66498;48.564;19.272;2022-12-29T21:11:07;74.45;;;41.10;;
77430;SDS011;66498;48.564;19.272;2022-12-29T21:13:33;66.22;;;38.60;;
77430;SDS011;66498;48.564;19.272;2022-12-29T21:16:03;57.78;;;36.08;;
77430;SDS011;66498;48.564;19.272;2022-12-29T21:18:31;64.82;;;37.28;;
77430;SDS011;66498;48.564;19.272;2022-12-29T21:21:01;64.18;;;37.83;;
77430;SDS011;66498;48.564;19.272;2022-12-29T21:23:31;71.68;;;39.55;;
77430;SDS011;66498;48.564;19.272;2022-12-29T21:25:57;63.17;;;37.40;;
77430;SDS011;66498;48.564;19.272;2022-12-29T21:28:24;75.78;;;43.15;;
77430;SDS011;66498;48.564;19.272;2022-12-29T21:30:51;104.70;;;57.35;;
77430;SDS011;66498;48.564;19.272;2022-12-29T21:33:17;76.22;;;44.05;;
77430;SDS011;66498;48.564;19.272;2022-12-29T21:35:45;82.95;;;47.30;;
77430;SDS011;66498;48.564;19.272;2022-12-29T21:38:11;102.05;;;56.35;;
77430;SDS011;66498;48.564;19.272;2022-12-29T21:40:38;101.25;;;54.50;;
77430;SDS011;66498;48.564;19.272;2022-12-29T21:43:04;87.20;;;50.05;;
77430;SDS011;66498;48.564;19.272;2022-12-29T21:45:30;87.57;;;48.92;;
77430;SDS011;66498;48.564;19.272;2022-12-29T21:50:42;80.82;;;46.58;;
77430;SDS011;66498;48.564;19.272;2022-12-29T21:53:28;83.70;;;46.80;;
77430;SDS011;66498;48.564;19.272;2022-12-29T21:56:14;68.05;;;39.67;;
77430;SDS011;66498;48.564;19.272;2022-12-29T21:58:43;65.32;;;38.33;;
77430;SDS011;66498;48.564;19.272;2022-12-29T22:01:30;84.25;;;47.10;;
77430;SDS011;66498;48.564;19.272;2022-12-29T22:04:16;86.25;;;47.58;;
77430;SDS011;66498;48.564;19.272;2022-12-29T22:07:03;99.50;;;52.90;;
77430;SDS011;66498;48.564;19.272;2022-12-29T22:09:48;81.43;;;44.17;;
77430;SDS011;66498;48.564;19.272;2022-12-29T22:12:32;68.97;;;39.58;;
77430;SDS011;66498;48.564;19.272;2022-12-29T22:15:16;68.43;;;41.20;;
77430;SDS011;66498;48.564;19.272;2022-12-29T22:17:43;71.63;;;42.17;;
77430;SDS011;66498;48.564;19.272;2022-12-29T22:20:10;65.55;;;40.97;;
77430;SDS011;66498;48.564;19.272;2022-12-29T22:22:36;120.72;;;63.90;;
77430;SDS011;66498;48.564;19.272;2022-12-29T22:25:01;115.32;;;62.47;;
77430;SDS011;66498;48.564;19.272;2022-12-29T22:27:27;129.50;;;68.03;;
77430;SDS011;66498;48.564;19.272;2022-12-29T22:29:53;124.28;;;66.05;;
77430;SDS011;66498;48.564;19.272;2022-12-29T22:32:18;130.07;;;69.38;;
77430;SDS011;66498;48.564;19.272;2022-12-29T22:34:45;129.65;;;66.45;;
77430;SDS011;66498;48.564;19.272;2022-12-29T22:37:12;120.82;;;62.53;;
77430;SDS011;66498;48.564;19.272;2022-12-29T22:39:38;109.82;;;57.80;;
77430;SDS011;66498;48.564;19.272;2022-12-29T22:42:04;104.85;;;55.70;;
77430;SDS011;66498;48.564;19.272;2022-12-29T22:44:29;99.82;;;54.38;;
77430;SDS011;66498;48.564;19.272;2022-12-29T22:46:55;105.10;;;54.88;;
77430;SDS011;66498;48.564;19.272;2022-12-29T22:49:20;107.53;;;56.22;;
77430;SDS011;66498;48.564;19.272;2022-12-29T22:51:46;109.47;;;55.10;;
77430;SDS011;66498;48.564;19.272;2022-12-29T22:54:11;130.18;;;64.30;;
77430;SDS011;66498;48.564;19.272;2022-12-29T22:56:37;148.20;;;71.90;;
77430;SDS011;66498;48.564;19.272;2022-12-29T22:59:06;130.70;;;63.63;;
77430;SDS011;66498;48.564;19.272;2022-12-29T23:01:34;114.68;;;58.55;;
77430;SDS011;66498;48.564;19.272;2022-12-29T23:04:00;117.47;;;58.30;;
77430;SDS011;66498;48.564;19.272;2022-12-29T23:06:26;112.95;;;56.17;;
77430;SDS011;66498;48.564;19.272;2022-12-29T23:08:51;127.32;;;64.03;;
77430;SDS011;66498;48.564;19.272;2022-12-29T23:11:20;124.10;;;61.88;;
77430;SDS011;66498;48.564;19.272;2022-12-29T23:13:45;124.68;;;62.63;;
77430;SDS011;66498;48.564;19.272;2022-12-29T23:16:13;118.10;;;63.13;;
77430;SDS011;66498;48.564;19.272;2022-12-29T23:18:39;116.35;;;59.72;;
77430;SDS011;66498;48.564;19.272;2022-12-29T23:21:06;119.55;;;63.33;;
77430;SDS011;66498;48.564;19.272;2022-12-29T23:23:31;109.20;;;58.13;;
77430;SDS011;66498;48.564;19.272;2022-12-29T23:26:16;107.93;;;57.47;;
77430;SDS011;66498;48.564;19.272;2022-12-29T23:28:42;117.38;;;61.55;;
77430;SDS011;66498;48.564;19.272;2022-12-29T23:31:08;124.03;;;62.38;;
77430;SDS011;66498;48.564;19.272;2022-12-29T23:33:33;124.57;;;62.17;;
77430;SDS011;66498;48.564;19.272;2022-12-29T23:35:59;124.38;;;62.70;;
77430;SDS011;66498;48.564;19.272;2022-12-29T23:38:24;122.97;;;62.55;;
77430;SDS011;66498;48.564;19.272;2022-12-29T23:40:51;111.35;;;57.20;;
77430;SDS011;66498;48.564;19.272;2022-12-29T23:43:17;109.68;;;57.83;;
77430;SDS011;66498;48.564;19.272;2022-12-29T23:45:43;103.72;;;57.08;;
77430;SDS011;66498;48.564;19.272;2022-12-29T23:48:08;112.72;;;56.83;;
77430;SDS011;66498;48.564;19.272;2022-12-29T23:50:34;109.15;;;57.50;;
77430;SDS011;66498;48.564;19.272;2022-12-29T23:53:04;106.90;;;56.65;;
77430;SDS011;66498;48.564;19.272;2022-12-29T23:55:29;113.10;;;56.63;;
77430;SDS011;66498;48.564;19.272;2022-12-29T23:57:54;109.18;;;56.65;;
